Time;durP1;ratioP1;P1;durP2;ratioP2;P2;SDS_P1;SDS_P2;PMS_P1;PMS_P2;Temp;Humidity;BMP_temperature;BMP_pressure;BME280_temperature;BME280_humidity;BME280_pressure;Samples;Min_cycle;Max_cycle;Signal;HPM_P1;HPM_P2
2021/12/09 00:01:52;;;;;;;0.30;0.30;;;;;;;-0.75;100.00;99872.47;4987158;28;20046;-81
2021/12/09 00:04:27;;;;;;;0.20;0.20;;;;;;;-0.67;100.00;99860.66;5005397;28;20042;-82
2021/12/09 00:06:58;;;;;;;0.20;0.20;;;;;;;-0.78;100.00;99857.69;4993706;28;20058;-82
2021/12/09 00:09:28;;;;;;;0.25;0.25;;;;;;;-0.83;100.00;99848.72;4986742;28;20058;-82
2021/12/09 00:12:02;;;;;;;0.30;0.30;;;;;;;-0.66;100.00;99870.28;4987075;28;20042;-81
2021/12/09 00:14:36;;;;;;;0.20;0.20;;;;;;;-0.79;100.00;99864.06;4987558;28;20042;-81
2021/12/09 00:17:12;;;;;;;0.20;0.20;;;;;;;-0.77;100.00;99861.22;4990481;28;20073;-82
2021/12/09 00:19:40;;;;;;;0.22;0.22;;;;;;;-0.83;100.00;99875.44;4995105;28;20061;-82
2021/12/09 00:22:11;;;;;;;0.22;0.22;;;;;;;-0.76;100.00;99868.16;4998517;28;20046;-82
2021/12/09 00:24:45;;;;;;;0.20;0.20;;;;;;;-0.80;100.00;99869.66;4992156;28;20046;-81
2021/12/09 00:27:19;;;;;;;0.20;0.20;;;;;;;-0.82;100.00;99869.88;4994419;28;20053;-81
2021/12/09 00:29:52;;;;;;;0.20;0.20;;;;;;;-0.83;100.00;99870.09;4989572;28;20065;-81
2021/12/09 00:32:25;;;;;;;0.20;0.20;;;;;;;-0.87;100.00;99869.72;4989197;28;20050;-81
2021/12/09 00:34:58;;;;;;;0.20;0.20;;;;;;;-0.78;100.00;99867.59;5020906;28;20069;-82
2021/12/09 00:37:37;;;;;;;0.20;0.20;;;;;;;-0.77;100.00;99862.00;4994604;28;20076;-81
2021/12/09 00:40:12;;;;;;;0.20;0.20;;;;;;;-0.84;100.00;99866.63;4984384;28;20092;-82
2021/12/09 00:42:45;;;;;;;0.20;0.20;;;;;;;-0.78;100.00;99854.22;4990439;28;20042;-81
2021/12/09 00:45:18;;;;;;;0.20;0.20;;;;;;;-0.80;100.00;99853.63;4990735;28;20050;-82
2021/12/09 00:47:52;;;;;;;0.30;0.30;;;;;;;-0.88;100.00;99858.22;4989850;28;20502;-81
2021/12/09 00:50:25;;;;;;;0.20;0.20;;;;;;;-0.95;100.00;99854.84;4987434;28;20050;-82
2021/12/09 00:52:58;;;;;;;0.20;0.20;;;;;;;-0.92;100.00;99849.03;4988907;28;20065;-81
2021/12/09 00:55:32;;;;;;;0.20;0.20;;;;;;;-0.85;100.00;99851.63;4992647;28;20509;-82
2021/12/09 00:58:00;;;;;;;0.20;0.20;;;;;;;-0.92;100.00;99849.03;4991659;28;20046;-82
2021/12/09 01:00:34;;;;;;;0.20;0.20;;;;;;;-0.94;100.00;99840.44;4992705;28;20054;-82
2021/12/09 01:03:08;;;;;;;0.30;0.30;;;;;;;-0.93;100.00;99854.59;4989259;28;20042;-81
2021/12/09 01:05:43;;;;;;;0.20;0.20;;;;;;;-0.86;100.00;99845.47;4991475;28;20050;-82
2021/12/09 01:08:17;;;;;;;0.30;0.30;;;;;;;-0.87;100.00;99848.34;4993637;28;20069;-81
2021/12/09 01:10:52;;;;;;;0.20;0.20;;;;;;;-0.93;100.00;99843.94;4991634;28;20046;-82
2021/12/09 01:13:20;;;;;;;0.30;0.30;;;;;;;-0.99;100.00;99840.28;4991497;28;20057;-82
2021/12/09 01:15:49;;;;;;;0.20;0.20;;;;;;;-1.01;100.00;99834.34;4990089;28;20054;-81
2021/12/09 01:18:23;;;;;;;0.20;0.20;;;;;;;-1.01;100.00;99828.19;4991717;28;20046;-82
2021/12/09 01:20:57;;;;;;;0.30;0.30;;;;;;;-1.06;100.00;99840.38;4993108;28;20057;-82
2021/12/09 01:23:30;;;;;;;0.22;0.22;;;;;;;-1.03;100.00;99842.59;4991970;28;20066;-82
2021/12/09 01:26:02;;;;;;;0.20;0.20;;;;;;;-1.08;100.00;99829.13;4997864;28;20059;-82
2021/12/09 01:28:44;;;;;;;0.20;0.20;;;;;;;-1.03;100.00;99829.22;4989384;28;20057;-83
2021/12/09 01:31:22;;;;;;;0.20;0.20;;;;;;;-1.05;100.00;99835.84;4989597;28;20046;-82
2021/12/09 01:34:01;;;;;;;0.30;0.30;;;;;;;-1.05;100.00;99828.66;4997442;28;20042;-81
2021/12/09 01:36:36;;;;;;;0.30;0.30;;;;;;;-1.10;100.00;99836.50;4987418;28;20043;-81
2021/12/09 01:39:11;;;;;;;0.30;0.30;;;;;;;-1.06;100.00;99837.69;4989330;28;20034;-81
2021/12/09 01:41:46;;;;;;;0.20;0.20;;;;;;;-1.06;100.00;99832.34;4987872;28;20054;-82
2021/12/09 01:44:19;;;;;;;0.20;0.20;;;;;;;-1.05;100.00;99841.19;4990400;28;20491;-82
2021/12/09 01:46:47;;;;;;;0.20;0.20;;;;;;;-1.06;100.00;99832.34;4992325;28;20517;-82
2021/12/09 01:49:16;;;;;;;0.28;0.28;;;;;;;-1.12;100.00;99822.59;4988015;28;20050;-82
2021/12/09 01:51:49;;;;;;;0.20;0.20;;;;;;;-1.09;100.00;99845.34;4987084;28;20041;-81
2021/12/09 01:54:24;;;;;;;0.20;0.20;;;;;;;-1.12;100.00;99832.44;4991226;28;20053;-81
2021/12/09 01:56:59;;;;;;;0.20;0.20;;;;;;;-1.10;100.00;99844.53;4988063;28;20049;-82
2021/12/09 01:59:33;;;;;;;0.20;0.20;;;;;;;-1.09;100.00;99845.34;4990130;28;20049;-82
2021/12/09 02:02:06;;;;;;;0.20;0.20;;;;;;;-1.13;100.00;99853.00;4995093;28;20047;-82
2021/12/09 02:04:39;;;;;;;0.20;0.20;;;;;;;-1.12;100.00;99853.78;4990364;28;20420;-82
2021/12/09 02:07:12;;;;;;;0.20;0.20;;;;;;;-1.11;100.00;99858.09;4989405;28;20046;-81
2021/12/09 02:09:41;;;;;;;0.20;0.20;;;;;;;-1.08;100.00;99847.81;4989698;28;20049;-82
2021/12/09 02:12:11;;;;;;;0.20;0.20;;;;;;;-1.08;100.00;99846.97;4994751;28;20388;-82
2021/12/09 02:14:44;;;;;;;0.30;0.30;;;;;;;-1.11;100.00;99834.06;4988592;28;20118;-81
2021/12/09 02:17:17;;;;;;;0.20;0.20;;;;;;;-1.12;100.00;99833.28;4991481;28;20613;-81
2021/12/09 02:19:52;;;;;;;0.25;0.25;;;;;;;-1.10;100.00;99822.34;4993320;28;20050;-81
2021/12/09 02:22:21;;;;;;;0.20;0.20;;;;;;;-1.07;100.00;99829.91;4990367;28;20515;-81
2021/12/09 02:24:49;;;;;;;0.20;0.20;;;;;;;-1.12;100.00;99827.94;4991893;28;20053;-81
2021/12/09 02:27:23;;;;;;;0.25;0.25;;;;;;;-1.06;100.00;99827.03;4992248;28;20061;-81
2021/12/09 02:29:57;;;;;;;0.20;0.20;;;;;;;-1.11;100.00;99820.72;4988127;28;20050;-82
2021/12/09 02:32:30;;;;;;;0.30;0.30;;;;;;;-1.15;100.00;99825.69;5000531;28;20502;-82
2021/12/09 02:35:04;;;;;;;0.20;0.20;;;;;;;-1.12;100.00;99827.09;4996676;28;20037;-81
2021/12/09 02:37:38;;;;;;;0.20;0.20;;;;;;;-1.11;100.00;99831.41;4987259;28;20540;-81
2021/12/09 02:40:13;;;;;;;0.30;0.30;;;;;;;-1.12;100.00;99827.09;4990474;28;20053;-81
2021/12/09 02:42:41;;;;;;;0.30;0.30;;;;;;;-1.09;100.00;99829.31;4989858;28;20057;-81
2021/12/09 02:45:15;;;;;;;0.20;0.20;;;;;;;-1.07;100.00;99832.59;4987220;28;20050;-81
2021/12/09 02:47:48;;;;;;;0.20;0.20;;;;;;;-1.08;100.00;99838.97;4992089;28;20328;-81
2021/12/09 02:50:21;;;;;;;0.28;0.28;;;;;;;-1.11;100.00;99850.91;4988330;28;20061;-82
2021/12/09 02:52:56;;;;;;;0.20;0.20;;;;;;;-1.15;100.00;99849.72;4985097;28;20050;-81
2021/12/09 02:55:29;;;;;;;0.20;0.20;;;;;;;-1.12;100.00;99843.13;4986313;28;20062;-82
2021/12/09 02:58:02;;;;;;;0.20;0.20;;;;;;;-1.12;100.00;99833.28;4990261;28;20038;-81
2021/12/09 03:00:51;;;;;;;0.17;0.17;;;;;;;-1.13;100.00;99844.16;4987609;28;20046;-81
2021/12/09 03:03:25;;;;;;;0.20;0.20;;;;;;;-1.14;100.00;99853.22;4987998;28;20054;-81
2021/12/09 03:06:00;;;;;;;0.20;0.20;;;;;;;-1.15;100.00;99851.56;4988057;28;20043;-81
2021/12/09 03:08:36;;;;;;;0.20;0.20;;;;;;;-1.17;100.00;99851.81;4988520;28;20046;-81
2021/12/09 03:11:06;;;;;;;0.20;0.20;;;;;;;-1.14;100.00;99851.34;4995097;28;20057;-81
2021/12/09 03:13:41;;;;;;;0.20;0.20;;;;;;;-1.16;100.00;99837.44;4993351;28;20050;-81
2021/12/09 03:16:14;;;;;;;0.20;0.20;;;;;;;-1.08;100.00;99842.47;4994798;28;20046;-81
2021/12/09 03:18:51;;;;;;;0.20;0.20;;;;;;;-1.04;100.00;99842.81;4995060;28;20093;-81
2021/12/09 03:21:22;;;;;;;0.20;0.20;;;;;;;-1.16;100.00;99836.59;4993728;28;20373;-82
2021/12/09 03:23:59;;;;;;;0.30;0.30;;;;;;;-1.14;100.00;99848.69;4992971;28;20045;-81
2021/12/09 03:26:31;;;;;;;0.20;0.20;;;;;;;-1.15;100.00;99851.56;4995789;28;20130;-81
2021/12/09 03:29:01;;;;;;;0.20;0.20;;;;;;;-1.24;100.00;99849.22;4991991;28;20498;-81
2021/12/09 03:31:38;;;;;;;0.30;0.30;;;;;;;-1.23;100.00;99847.34;4996041;28;20073;-81
2021/12/09 03:34:12;;;;;;;0.20;0.20;;;;;;;-1.24;100.00;99851.88;4982289;28;20046;-81
2021/12/09 03:36:47;;;;;;;0.20;0.20;;;;;;;-1.17;100.00;99854.47;4991234;28;20057;-81
2021/12/09 03:39:24;;;;;;;0.20;0.20;;;;;;;-1.20;100.00;99850.38;4993009;28;20043;-82
2021/12/09 03:41:55;;;;;;;0.30;0.30;;;;;;;-1.24;100.00;99859.09;4993915;28;20042;-81
2021/12/09 03:44:29;;;;;;;0.25;0.25;;;;;;;-1.27;100.00;99855.00;4991159;28;20059;-81
2021/12/09 03:47:00;;;;;;;0.20;0.20;;;;;;;-1.23;100.00;99871.38;5001038;28;20062;-81
2021/12/09 03:49:33;;;;;;;0.20;0.20;;;;;;;-1.21;100.00;99872.78;4992644;28;20054;-81
2021/12/09 03:52:01;;;;;;;0.20;0.20;;;;;;;-1.30;100.00;99873.28;4998485;28;20410;-82
2021/12/09 03:54:31;;;;;;;0.25;0.25;;;;;;;-1.25;100.00;99876.13;4990183;28;20065;-81
2021/12/09 03:57:05;;;;;;;0.20;0.20;;;;;;;-1.39;100.00;99867.44;4994537;28;20050;-81
2021/12/09 03:59:34;;;;;;;0.20;0.20;;;;;;;-1.24;100.00;99880.44;4992649;28;20046;-81
2021/12/09 04:02:03;;;;;;;0.20;0.20;;;;;;;-1.27;100.00;99879.03;4991789;28;20049;-81
2021/12/09 04:04:32;;;;;;;0.20;0.20;;;;;;;-1.23;100.00;99885.56;4992272;28;20056;-81
2021/12/09 04:07:05;;;;;;;0.20;0.20;;;;;;;-1.22;100.00;99881.00;4993620;28;20054;-81
2021/12/09 04:09:40;;;;;;;0.20;0.20;;;;;;;-1.22;100.00;99881.00;4983066;28;20046;-81
2021/12/09 04:12:11;;;;;;;0.25;0.25;;;;;;;-1.27;100.00;99870.19;4993743;28;20495;-81
2021/12/09 04:14:44;;;;;;;0.20;0.20;;;;;;;-1.25;100.00;99866.25;4999398;28;20053;-81
2021/12/09 04:17:17;;;;;;;0.20;0.20;;;;;;;-1.23;100.00;99868.69;4993426;28;20046;-81
2021/12/09 04:19:50;;;;;;;0.20;0.20;;;;;;;-1.27;100.00;99870.19;4991764;28;20520;-81
2021/12/09 04:22:24;;;;;;;0.20;0.20;;;;;;;-1.24;100.00;99859.09;4999939;28;20059;-81
2021/12/09 04:24:54;;;;;;;0.30;0.30;;;;;;;-1.30;100.00;99839.41;4984584;28;20506;-81
2021/12/09 04:27:28;;;;;;;0.20;0.20;;;;;;;-1.21;100.00;99869.31;5010538;28;20057;-81
2021/12/09 04:30:01;;;;;;;0.30;0.30;;;;;;;-1.24;100.00;99870.56;4994860;28;20049;-81
2021/12/09 04:32:34;;;;;;;0.30;0.30;;;;;;;-1.25;100.00;99866.25;5000852;28;20055;-81
2021/12/09 04:35:09;;;;;;;0.20;0.20;;;;;;;-1.21;100.00;99867.44;4988114;28;20407;-81
2021/12/09 04:37:43;;;;;;;0.28;0.28;;;;;;;-1.27;100.00;99870.19;4992099;28;20030;-81
2021/12/09 04:40:18;;;;;;;0.20;0.20;;;;;;;-1.31;100.00;99869.81;4989889;28;20054;-81
2021/12/09 04:42:51;;;;;;;0.20;0.20;;;;;;;-1.33;100.00;99863.88;4992431;28;20491;-81
2021/12/09 04:45:24;;;;;;;0.20;0.20;;;;;;;-1.27;100.00;99865.69;4989642;28;20061;-81
2021/12/09 04:47:57;;;;;;;0.20;0.20;;;;;;;-1.34;100.00;99862.25;4992897;28;20046;-81
2021/12/09 04:50:31;;;;;;;0.20;0.20;;;;;;;-1.28;100.00;99863.22;4993825;28;20506;-82
2021/12/09 04:53:06;;;;;;;0.20;0.20;;;;;;;-1.32;100.00;99868.19;4992375;28;20047;-81
2021/12/09 04:55:41;;;;;;;0.20;0.20;;;;;;;-1.35;100.00;99863.28;4988670;28;20042;-81
2021/12/09 04:58:14;;;;;;;0.20;0.20;;;;;;;-1.30;100.00;99874.09;4990336;28;20061;-81
2021/12/09 05:00:49;;;;;;;0.20;0.20;;;;;;;-1.31;100.00;99882.34;4991024;28;20042;-81
2021/12/09 05:03:22;;;;;;;0.20;0.20;;;;;;;-1.29;100.00;99881.09;4988513;28;20051;-82
2021/12/09 05:05:56;;;;;;;0.30;0.30;;;;;;;-1.34;100.00;99886.28;4994852;28;20065;-81
2021/12/09 05:08:32;;;;;;;0.20;0.20;;;;;;;-1.32;100.00;99888.72;4989008;28;20395;-81
2021/12/09 05:11:11;;;;;;;0.30;0.30;;;;;;;-1.33;100.00;99890.56;4990046;28;20073;-81
2021/12/09 05:13:40;;;;;;;0.20;0.20;;;;;;;-1.39;100.00;99897.59;4989532;28;20057;-81
2021/12/09 05:16:14;;;;;;;0.20;0.20;;;;;;;-1.44;100.00;99899.31;4990037;28;20369;-80
2021/12/09 05:18:48;;;;;;;0.20;0.20;;;;;;;-1.45;100.00;99898.50;4988777;28;20042;-81
2021/12/09 05:21:17;;;;;;;0.20;0.20;;;;;;;-1.46;100.00;99896.84;4990618;28;20419;-82
2021/12/09 05:23:45;;;;;;;0.25;0.25;;;;;;;-1.39;100.00;99892.28;4991342;28;20058;-81
2021/12/09 05:26:22;;;;;;;0.20;0.20;;;;;;;-1.42;100.00;99886.56;4988056;28;20796;-80
2021/12/09 05:28:57;;;;;;;0.30;0.30;;;;;;;-1.41;100.00;99883.69;4992261;28;20046;-81
2021/12/09 05:34:19;;;;;;;0.20;0.20;;;;;;;-1.45;100.00;99889.66;4991099;28;20104;-80
2021/12/09 05:36:52;;;;;;;0.20;0.20;;;;;;;-1.44;100.00;99897.44;4992623;28;20054;-81
2021/12/09 05:39:21;;;;;;;0.20;0.20;;;;;;;-1.45;100.00;99897.66;5021382;28;20050;-80
2021/12/09 05:41:56;;;;;;;0.25;0.25;;;;;;;-1.46;100.00;99910.19;4988676;28;20396;-81
2021/12/09 05:44:24;;;;;;;0.20;0.20;;;;;;;-1.43;100.00;99911.63;4983715;28;20472;-82
2021/12/09 05:46:59;;;;;;;0.30;0.30;;;;;;;-1.46;100.00;99909.41;4990060;28;20057;-81
2021/12/09 05:49:32;;;;;;;0.20;0.20;;;;;;;-1.51;100.00;99909.22;4985086;28;20549;-81
2021/12/09 05:52:01;;;;;;;0.20;0.20;;;;;;;-1.54;100.00;99905.16;4992446;28;20050;-80
2021/12/09 05:54:30;;;;;;;0.20;0.20;;;;;;;-1.54;100.00;99908.63;4988248;28;20054;-81
2021/12/09 05:57:05;;;;;;;0.25;0.25;;;;;;;-1.59;100.00;99904.97;4991898;28;20038;-81
2021/12/09 05:59:41;;;;;;;0.20;0.20;;;;;;;-1.60;100.00;99900.66;4990401;28;20050;-81
2021/12/09 06:02:11;;;;;;;0.20;0.20;;;;;;;-1.62;100.00;99908.09;4990172;28;20054;-81
2021/12/09 06:04:45;;;;;;;0.30;0.30;;;;;;;-1.55;100.00;99916.84;4988518;28;20058;-81
2021/12/09 06:07:18;;;;;;;0.20;0.20;;;;;;;-1.58;100.00;99920.75;4988517;28;20057;-82
2021/12/09 06:09:51;;;;;;;0.30;0.30;;;;;;;-1.58;100.00;99922.63;4989012;28;20047;-80
2021/12/09 06:12:26;;;;;;;0.30;0.30;;;;;;;-1.58;100.00;99915.44;4988401;28;20057;-80
2021/12/09 06:14:59;;;;;;;0.20;0.20;;;;;;;-1.54;100.00;99915.81;4987365;28;20058;-81
2021/12/09 06:17:33;;;;;;;0.20;0.20;;;;;;;-1.59;100.00;99919.16;4986434;28;20050;-81
2021/12/09 06:20:08;;;;;;;0.20;0.20;;;;;;;-1.61;100.00;99925.75;5001060;28;20047;-81
2021/12/09 06:22:41;;;;;;;0.20;0.20;;;;;;;-1.59;100.00;99924.50;4992473;28;20073;-81
2021/12/09 06:25:18;;;;;;;0.20;0.20;;;;;;;-1.58;100.00;99919.97;4984797;28;20058;-81
2021/12/09 06:27:49;;;;;;;0.30;0.30;;;;;;;-1.62;100.00;99924.09;4987152;28;20149;-80
2021/12/09 06:30:23;;;;;;;0.20;0.20;;;;;;;-1.67;100.00;99897.25;4985740;28;20637;-80
2021/12/09 06:32:52;;;;;;;0.30;0.30;;;;;;;-1.60;100.00;99898.84;4985391;28;20475;-81
2021/12/09 06:35:20;;;;;;;0.20;0.20;;;;;;;-1.63;100.00;99888.59;4990554;28;20430;-81
2021/12/09 06:37:54;;;;;;;0.20;0.20;;;;;;;-1.76;100.00;99854.84;4987625;28;20042;-81
2021/12/09 06:40:27;;;;;;;0.30;0.30;;;;;;;-1.56;100.00;99889.34;4990040;28;20049;-81
2021/12/09 06:43:01;;;;;;;0.20;0.20;;;;;;;-1.57;100.00;99901.06;4988572;28;20057;-80
2021/12/09 06:45:35;;;;;;;0.20;0.20;;;;;;;-1.60;100.00;99908.66;4993119;28;20089;-81
2021/12/09 06:48:09;;;;;;;0.20;0.20;;;;;;;-1.64;100.00;99900.31;4996334;28;20050;-80
2021/12/09 06:50:42;;;;;;;0.30;0.30;;;;;;;-1.64;100.00;99900.31;4987872;28;20130;-81
2021/12/09 06:53:16;;;;;;;0.20;0.20;;;;;;;-1.58;100.00;99901.28;4982128;28;20050;-83
2021/12/09 06:55:49;;;;;;;0.20;0.20;;;;;;;-1.66;100.00;99899.69;4981961;28;20054;-81
2021/12/09 06:58:24;;;;;;;0.20;0.20;;;;;;;-1.64;100.00;99910.97;4982126;28;20050;-82
2021/12/09 07:01:00;;;;;;;0.20;0.20;;;;;;;-1.67;100.00;99927.44;4983513;28;20057;-81
2021/12/09 07:03:34;;;;;;;0.20;0.20;;;;;;;-1.65;100.00;99932.53;4985574;28;20073;-81
2021/12/09 07:06:11;;;;;;;0.20;0.20;;;;;;;-1.73;100.00;99925.63;4978897;28;20054;-82
2021/12/09 07:08:46;;;;;;;0.30;0.30;;;;;;;-1.59;100.00;99927.16;4978722;28;20053;-81
2021/12/09 07:11:21;;;;;;;0.30;0.30;;;;;;;-1.63;100.00;99931.28;4973951;28;20034;-81
2021/12/09 07:13:55;;;;;;;0.20;0.20;;;;;;;-1.65;100.00;99933.34;4969599;28;20062;-81
2021/12/09 07:16:23;;;;;;;0.30;0.30;;;;;;;-1.60;100.00;99927.34;4972711;28;20097;-82
2021/12/09 07:18:58;;;;;;;0.20;0.20;;;;;;;-1.60;100.00;99922.00;4969866;28;20065;-82
2021/12/09 07:21:27;;;;;;;0.20;0.20;;;;;;;-1.57;100.00;99917.06;4961080;28;20065;-82
2021/12/09 07:24:00;;;;;;;0.20;0.20;;;;;;;-1.60;100.00;99924.69;4960776;28;20057;-82
2021/12/09 07:26:33;;;;;;;0.25;0.25;;;;;;;-1.63;100.00;99933.97;4961353;28;20410;-82
2021/12/09 07:29:08;;;;;;;0.20;0.20;;;;;;;-1.61;100.00;99934.53;4966461;28;20042;-83
2021/12/09 07:31:41;;;;;;;0.20;0.20;;;;;;;-1.61;100.00;99928.41;4961772;28;20050;-83
2021/12/09 07:34:16;;;;;;;0.30;0.30;;;;;;;-1.61;100.00;99928.41;4962085;28;20609;-83
2021/12/09 07:36:49;;;;;;;0.20;0.20;;;;;;;-1.59;100.00;99934.31;4962929;28;20056;-83
2021/12/09 07:39:22;;;;;;;0.22;0.22;;;;;;;-1.57;100.00;99932.28;4962962;28;20424;-83
2021/12/09 07:41:50;;;;;;;0.20;0.20;;;;;;;-1.58;100.00;99936.78;4959607;28;20054;-82
2021/12/09 07:44:25;;;;;;;0.30;0.30;;;;;;;-1.61;100.00;99925.75;4958225;28;20081;-82
2021/12/09 07:46:59;;;;;;;0.20;0.20;;;;;;;-1.66;100.00;99921.03;4968340;28;20058;-83
2021/12/09 07:49:33;;;;;;;0.30;0.30;;;;;;;-1.58;100.00;99950.13;4970093;28;20807;-82
2021/12/09 07:52:06;;;;;;;0.30;0.30;;;;;;;-1.65;100.00;99936.00;4976873;28;20052;-81
2021/12/09 07:54:40;;;;;;;0.30;0.30;;;;;;;-1.63;100.00;99941.13;4973149;28;20057;-82
2021/12/09 07:57:09;;;;;;;0.22;0.22;;;;;;;-1.63;100.00;99949.97;4978456;28;20800;-82
2021/12/09 07:59:44;;;;;;;0.20;0.20;;;;;;;-1.68;100.00;99943.66;4970490;28;20053;-82
2021/12/09 08:02:17;;;;;;;0.30;0.30;;;;;;;-1.72;100.00;99946.72;4961188;28;20053;-81
2021/12/09 08:04:46;;;;;;;0.20;0.20;;;;;;;-1.73;100.00;99952.28;4998842;28;20057;-82
2021/12/09 08:07:19;;;;;;;0.20;0.20;;;;;;;-1.65;100.00;99952.03;4971941;28;20054;-82
2021/12/09 08:09:52;;;;;;;0.30;0.30;;;;;;;-1.76;100.00;99939.41;4967917;28;20054;-82
2021/12/09 08:12:25;;;;;;;0.20;0.20;;;;;;;-1.68;100.00;99949.00;4963111;28;20081;-81
2021/12/09 08:15:00;;;;;;;0.20;0.20;;;;;;;-1.59;100.00;99945.00;4995322;28;20804;-81
2021/12/09 08:17:56;;;;;;;0.30;0.30;;;;;;;-1.61;100.00;99947.09;4967591;28;20458;-82
2021/12/09 08:20:31;;;;;;;0.20;0.20;;;;;;;-1.72;100.00;99946.72;4961635;28;20050;-82
2021/12/09 08:23:06;;;;;;;0.30;0.30;;;;;;;-1.63;100.00;99951.81;4971047;28;20073;-82
2021/12/09 08:25:34;;;;;;;0.20;0.20;;;;;;;-1.63;100.00;99951.81;4972864;28;20062;-82
2021/12/09 08:28:07;;;;;;;0.20;0.20;;;;;;;-1.51;100.00;99949.25;4975425;28;20799;-82
2021/12/09 08:30:44;;;;;;;0.20;0.20;;;;;;;-1.61;100.00;99960.41;4971584;28;20065;-82
2021/12/09 08:33:13;;;;;;;0.20;0.20;;;;;;;-1.53;100.00;99957.50;4968456;28;20073;-81
2021/12/09 08:35:48;;;;;;;0.20;0.20;;;;;;;-1.51;100.00;99955.41;4975597;28;20054;-81
2021/12/09 08:38:23;;;;;;;0.20;0.20;;;;;;;-1.49;100.00;99955.19;4984528;28;20046;-81
2021/12/09 08:40:58;;;;;;;0.30;0.30;;;;;;;-1.61;100.00;99955.09;4970923;28;20051;-82
2021/12/09 08:43:31;;;;;;;0.20;0.20;;;;;;;-1.63;100.00;99949.97;4969253;28;21330;-82
2021/12/09 08:46:01;;;;;;;0.20;0.20;;;;;;;-1.62;100.00;99950.78;4971659;28;20519;-82
2021/12/09 08:48:29;;;;;;;0.25;0.25;;;;;;;-1.55;100.00;99955.03;4963206;28;20062;-82
2021/12/09 08:51:03;;;;;;;0.20;0.20;;;;;;;-1.55;100.00;99968.38;4962044;28;20061;-82
2021/12/09 08:53:37;;;;;;;0.20;0.20;;;;;;;-1.57;100.00;99964.28;4969418;28;20050;-84
2021/12/09 08:56:10;;;;;;;0.10;0.10;;;;;;;-1.60;100.00;99954.88;4962227;28;20806;-84
2021/12/09 08:58:38;;;;;;;0.20;0.20;;;;;;;-1.64;100.00;99966.16;4969039;28;20062;-82
2021/12/09 09:01:15;;;;;;;0.17;0.17;;;;;;;-1.55;100.00;99971.06;4962506;28;20054;-82
2021/12/09 09:03:48;;;;;;;0.20;0.20;;;;;;;-1.54;100.00;99967.31;4970800;28;20428;-83
2021/12/09 09:06:21;;;;;;;0.20;0.20;;;;;;;-1.55;100.00;99975.56;4969407;28;20054;-82
2021/12/09 09:08:57;;;;;;;0.30;0.30;;;;;;;-1.56;100.00;99963.22;4961615;28;20430;-82
2021/12/09 09:11:32;;;;;;;0.30;0.30;;;;;;;-1.59;100.00;99961.00;4966501;28;20057;-81
2021/12/09 09:14:05;;;;;;;0.20;0.20;;;;;;;-1.66;100.00;99965.59;4962068;28;20435;-82
2021/12/09 09:16:41;;;;;;;0.20;0.20;;;;;;;-1.66;100.00;99966.38;4966796;28;20058;-83
2021/12/09 09:19:12;;;;;;;0.20;0.20;;;;;;;-1.59;100.00;99967.19;4960918;28;20515;-83
2021/12/09 09:21:45;;;;;;;0.20;0.20;;;;;;;-1.64;100.00;99948.34;4961592;28;20097;-83
2021/12/09 09:24:14;;;;;;;0.20;0.20;;;;;;;-1.68;100.00;99928.47;4958610;28;20050;-82
2021/12/09 09:26:48;;;;;;;0.30;0.30;;;;;;;-1.79;100.00;99929.97;4966271;28;20416;-83
2021/12/09 09:29:16;;;;;;;0.30;0.30;;;;;;;-1.68;100.00;99949.78;4970191;28;20057;-82
2021/12/09 09:31:51;;;;;;;0.20;0.20;;;;;;;-1.51;100.00;99978.63;4955069;28;20054;-82
2021/12/09 09:34:25;;;;;;;0.20;0.20;;;;;;;-1.46;100.00;99968.91;4957594;28;20529;-83
2021/12/09 09:36:53;;;;;;;0.20;0.20;;;;;;;-1.59;100.00;99967.19;4960903;28;20413;-81
2021/12/09 09:39:29;;;;;;;0.20;0.20;;;;;;;-1.59;100.00;99971.69;4973185;28;20499;-82
2021/12/09 09:42:20;;;;;;;0.20;0.20;;;;;;;-1.59;100.00;99967.19;4976182;28;20043;-82
2021/12/09 09:44:55;;;;;;;0.30;0.30;;;;;;;-1.54;100.00;99963.84;4960609;28;20053;-82
2021/12/09 09:47:30;;;;;;;0.20;0.20;;;;;;;-1.57;100.00;99962.44;4965177;28;20058;-82
2021/12/09 09:50:05;;;;;;;0.30;0.30;;;;;;;-1.58;100.00;99965.31;4969784;28;20066;-83
2021/12/09 09:52:39;;;;;;;0.20;0.20;;;;;;;-1.58;100.00;99960.78;4957271;28;20061;-82
2021/12/09 09:55:15;;;;;;;0.20;0.20;;;;;;;-1.67;100.00;99955.94;4959211;28;20092;-81
2021/12/09 09:57:43;;;;;;;0.30;0.30;;;;;;;-1.54;100.00;99951.31;4963731;28;20054;-82
2021/12/09 10:00:19;;;;;;;0.30;0.30;;;;;;;-1.60;100.00;99948.69;4957271;28;20604;-82
2021/12/09 10:02:54;;;;;;;0.20;0.20;;;;;;;-1.52;100.00;99951.09;4954071;28;20061;-82
2021/12/09 10:05:35;;;;;;;0.20;0.20;;;;;;;-1.49;100.00;99953.34;4961852;28;20073;-82
2021/12/09 10:08:05;;;;;;;0.20;0.20;;;;;;;-1.58;100.00;99952.78;4965624;28;20069;-83
2021/12/09 10:10:38;;;;;;;0.30;0.30;;;;;;;-1.55;100.00;99952.38;4968735;28;20058;-83
2021/12/09 10:13:14;;;;;;;0.20;0.20;;;;;;;-1.55;100.00;99940.84;4971960;28;20049;-82
2021/12/09 10:15:49;;;;;;;0.25;0.25;;;;;;;-1.55;100.00;99951.53;4977073;28;20051;-81
2021/12/09 10:18:36;;;;;;;0.20;0.20;;;;;;;-1.56;100.00;99944.56;4959476;28;20574;-82
2021/12/09 10:21:10;;;;;;;0.30;0.30;;;;;;;-1.54;100.00;99948.66;4953632;28;20081;-83
2021/12/09 10:23:46;;;;;;;0.20;0.20;;;;;;;-1.61;100.00;99939.06;4955180;28;20812;-82
2021/12/09 10:26:18;;;;;;;0.20;0.20;;;;;;;-1.54;100.00;99927.28;4954839;28;20058;-84
2021/12/09 10:29:04;;;;;;;0.30;0.30;;;;;;;-1.65;100.00;99920.00;4955608;28;20050;-83
2021/12/09 10:31:42;;;;;;;0.20;0.20;;;;;;;-1.46;100.00;99936.09;4954790;28;21177;-83
2021/12/09 10:34:20;;;;;;;0.25;0.25;;;;;;;-1.60;100.00;99925.50;4958184;28;20058;-83
2021/12/09 10:37:08;;;;;;;0.20;0.20;;;;;;;-1.49;100.00;99929.34;4969837;28;20550;-82
2021/12/09 10:39:42;;;;;;;0.20;0.20;;;;;;;-1.48;100.00;99919.47;4972670;28;20050;-83
2021/12/09 10:42:20;;;;;;;0.20;0.20;;;;;;;-1.45;100.00;99935.03;4976266;28;20050;-81
2021/12/09 10:44:59;;;;;;;0.20;0.20;;;;;;;-1.49;100.00;99928.50;4962651;28;20376;-82
2021/12/09 10:47:48;;;;;;;0.20;0.20;;;;;;;-1.47;100.00;99935.25;4964810;28;20047;-83
2021/12/09 10:50:30;;;;;;;0.13;0.13;;;;;;;-1.60;100.00;99933.53;4964492;28;20050;-83
2021/12/09 10:53:05;;;;;;;0.30;0.30;;;;;;;-1.54;100.00;99937.97;4958396;28;20545;-83
2021/12/09 10:55:38;;;;;;;0.22;0.22;;;;;;;-1.41;100.00;99938.91;4957715;28;20057;-83
2021/12/09 10:58:14;;;;;;;0.20;0.20;;;;;;;-1.51;100.00;99918.03;4965558;28;20494;-83
2021/12/09 11:00:51;;;;;;;0.17;0.17;;;;;;;-1.53;100.00;99933.47;4955530;28;20039;-83
2021/12/09 11:03:26;;;;;;;0.30;0.30;;;;;;;-1.41;100.00;99929.06;4956420;28;20058;-83
2021/12/09 11:06:04;;;;;;;0.20;0.20;;;;;;;-1.48;100.00;99922.94;4962545;28;20054;-83
2021/12/09 11:08:35;;;;;;;0.20;0.20;;;;;;;-1.43;100.00;99922.28;4958608;28;20054;-83
2021/12/09 11:11:15;;;;;;;0.30;0.30;;;;;;;-1.35;100.00;99922.00;4954705;28;20467;-83
2021/12/09 11:13:52;;;;;;;0.20;0.20;;;;;;;-1.45;100.00;99930.53;4958963;28;20375;-82
2021/12/09 11:16:29;;;;;;;0.20;0.20;;;;;;;-1.47;100.00;99926.44;4969174;28;20439;-83
2021/12/09 11:19:06;;;;;;;0.30;0.30;;;;;;;-1.49;100.00;99925.81;4968975;28;20074;-83
2021/12/09 11:21:39;;;;;;;0.20;0.20;;;;;;;-1.31;100.00;99931.22;4965688;28;20081;-83
2021/12/09 11:24:15;;;;;;;0.20;0.20;;;;;;;-1.36;100.00;99928.38;4979453;28;20042;-84
2021/12/09 11:26:55;;;;;;;0.20;0.20;;;;;;;-1.36;100.00;99909.69;4983273;28;20069;-82
2021/12/09 11:29:30;;;;;;;0.20;0.20;;;;;;;-1.41;100.00;99914.88;4979595;28;20423;-85
2021/12/09 11:32:11;;;;;;;0.20;0.20;;;;;;;-1.39;100.00;99910.16;4983338;28;20057;-84
2021/12/09 11:34:45;;;;;;;0.25;0.25;;;;;;;-1.37;100.00;99908.06;4984282;28;20053;-83
2021/12/09 11:37:42;;;;;;;0.30;0.30;;;;;;;-1.31;100.00;99911.69;4987711;28;20066;-84
2021/12/09 11:40:27;;;;;;;0.30;0.30;;;;;;;-1.36;100.00;99907.03;4987581;28;20054;-85
2021/12/09 11:43:02;;;;;;;0.20;0.20;;;;;;;-1.35;100.00;99899.81;4983584;28;20065;-82
2021/12/09 11:45:39;;;;;;;0.20;0.20;;;;;;;-1.43;100.00;99885.75;4985168;28;20737;-81
2021/12/09 11:48:14;;;;;;;0.20;0.20;;;;;;;-1.26;100.00;99899.31;4984809;28;20494;-82
2021/12/09 11:50:49;;;;;;;0.20;0.20;;;;;;;-1.27;100.00;99895.03;4984315;28;20053;-83
2021/12/09 11:53:26;;;;;;;0.20;0.20;;;;;;;-1.22;100.00;99897.03;4966659;28;20057;-84
2021/12/09 11:56:03;;;;;;;0.20;0.20;;;;;;;-1.17;100.00;99889.19;4992471;28;20406;-84
2021/12/09 11:58:49;;;;;;;0.20;0.20;;;;;;;-1.28;100.00;99890.72;5001661;28;20053;-83